Time;durP1;ratioP1;P1;durP2;ratioP2;P2;SDS_P1;SDS_P2;PMS_P1;PMS_P2;Temp;Humidity;BMP_temperature;BMP_pressure;BME280_temperature;BME280_humidity;BME280_pressure;Samples;Min_cycle;Max_cycle;Signal;HPM_P1;HPM_P2
2023/07/06 06:44:45;;;;;;;;;;;15.10;81.00;;;;;;4863625;29;19922;-96
2023/07/06 06:56:49;;;;;;;;;;;15.40;80.60;;;;;;4766876;30;19925;-92
2023/07/06 07:03:33;;;;;;;;;;;;;;;;;;;;;
2023/07/06 07:06:46;;;;;;;;;;;15.60;80.60;;;;;;4842230;29;20387;-93
2023/07/06 07:09:52;;;;;;;;;;;15.60;80.20;;;;;;4835481;29;19936;-96
2023/07/06 07:12:18;;;;;;;;;;;15.80;79.50;;;;;;4812494;29;19932;-92
2023/07/06 07:14:45;;;;;;;;;;;15.90;78.40;;;;;;4839855;29;20877;-94
2023/07/06 07:17:41;;;;;;;;;;;;;;;;;;;;;
2023/07/06 07:20:46;;;;;;;;;;;16.10;78.00;;;;;;4853547;29;19936;-93
2023/07/06 07:23:15;;;;;;;;;;;16.10;77.30;;;;;;4730335;29;19933;-95
2023/07/06 07:29:23;;;;;;;;;;;16.30;76.90;;;;;;4778267;29;19973;-96
2023/07/06 07:35:21;;;;;;;;;;;16.50;75.90;;;;;;4785884;29;20048;-96
2023/07/06 07:38:47;;;;;;;;;;;;;;;;;;;;;
2023/07/06 07:41:58;;;;;;;;;;;16.70;75.60;;;;;;4755595;30;20010;-96
2023/07/06 07:45:10;;;;;;;;;;;16.80;72.70;;;;;;4734439;30;19938;-96
2023/07/06 07:51:29;;;;;;;;;;;;;;;;;;;;;
2023/07/06 07:57:31;;;;;;;;;;;16.80;69.10;;;;;;4802814;29;20075;-94
2023/07/06 08:00:48;;;;;;;;;;;;;;;;;;;;;
2023/07/06 08:09:32;;;;;;;;;;;17.20;67.30;;;;;;4679900;27;19934;-86
2023/07/06 08:12:11;;;;;;;;;;;;;;;;;;;;;
2023/07/06 08:14:46;;;;;;;;;;;17.40;65.40;;;;;;4888535;29;20270;-89
2023/07/06 08:17:36;;;;;;;;;;;17.40;65.40;;;;;;4890010;29;20373;-93
2023/07/06 08:20:06;;;;;;;;;;;17.30;66.20;;;;;;4892186;29;19935;-92
2023/07/06 08:22:40;;;;;;;;;;;17.20;66.50;;;;;;4885517;29;20394;-95
2023/07/06 08:25:18;;;;;;;;;;;;;;;;;;;;;
2023/07/06 08:31:31;;;;;;;;;;;;;;;;;;;;;
2023/07/06 08:37:41;;;;;;;;;;;17.10;67.60;;;;;;4918679;29;20137;-96
2023/07/06 08:47:15;;;;;;;;;;;17.10;68.00;;;;;;4842925;29;19944;-95
2023/07/06 08:53:42;;;;;;;;;;;;;;;;;;;;;
2023/07/06 09:00:11;;;;;;;;;;;17.20;68.90;;;;;;4743130;30;20012;-95
2023/07/06 09:02:53;;;;;;;;;;;17.20;69.00;;;;;;4822780;29;21312;-96
2023/07/06 09:08:23;;;;;;;;;;;17.40;68.60;;;;;;4792453;29;20174;-94
2023/07/06 09:11:04;;;;;;;;;;;;;;;;;;;;;
2023/07/06 09:14:28;;;;;;;;;;;17.50;70.40;;;;;;4865269;29;19936;-94
2023/07/06 09:54:59;;;;;;;;;;;18.20;64.00;;;;;;4602196;31;19936;-93
2023/07/06 10:29:28;;;;;;;;;;;;;;;;;;;;;
2023/07/06 10:32:27;;;;;;;;;;;19.30;58.70;;;;;;6009792;23;19926;-92
2023/07/06 10:45:49;;;;;;;;;;;19.50;59.50;;;;;;5846547;24;19926;-92
2023/07/06 10:48:45;;;;;;;;;;;19.50;60.10;;;;;;5793508;24;19928;-93
2023/07/06 10:58:24;;;;;;;;;;;;;;;;;;;;;
2023/07/06 11:04:49;;;;;;;;;;;19.90;58.60;;;;;;5915068;24;19999;-93
2023/07/06 11:07:41;;;;;;;;;;;19.70;59.00;;;;;;5956647;23;19925;-92
2023/07/06 11:10:35;;;;;;;;;;;;;;;;;;;;;
2023/07/06 11:14:31;;;;;;;;;;;19.50;60.60;;;;;;6144360;23;19924;-93
2023/07/06 11:24:21;;;;;;;;;;;;;;;;;;;;;
2023/07/06 11:27:26;;;;;;;;;;;19.00;62.90;;;;;;5819804;24;19931;-94
2023/07/06 11:31:10;;;;;;;;;;;18.90;61.80;;;;;;5909980;23;19922;-94
2023/07/06 12:11:06;;;;;;;;;;;;;;;;;;;;;
2023/07/06 12:17:55;;;;;;;;;;;19.50;62.80;;;;;;6060915;23;20151;-92
2023/07/06 12:43:59;;;;;;;;;;;19.60;62.60;;;;;;5911620;24;20449;-91
2023/07/06 12:47:16;;;;;;;;;;;19.70;61.00;;;;;;5938062;23;19984;-93
2023/07/06 12:50:15;;;;;;;;;;;;;;;;;;;;;
2023/07/06 13:08:08;;;;;;;;;;;;;;;;;;;;;
2023/07/06 13:27:40;;;;;;;;;;;20.80;58.90;;;;;;5855304;24;19924;-94
2023/07/06 13:30:31;;;;;;;;;;;20.90;57.60;;;;;;5793246;24;19925;-92
2023/07/06 13:43:43;;;;;;;;;;;21.00;57.10;;;;;;5786336;24;19917;-91
2023/07/06 13:49:26;;;;;;;;;;;20.80;57.70;;;;;;5798195;24;19947;-92
2023/07/06 13:52:06;;;;;;;;;;;21.00;57.40;;;;;;5796387;24;20423;-95
2023/07/06 14:09:00;;;;;;;;;;;21.00;59.00;;;;;;5714710;24;19932;-92
2023/07/06 14:12:21;;;;;;;;;;;;;;;;;;;;;
2023/07/06 14:18:48;;;;;;;;;;;21.10;59.70;;;;;;5785916;24;19952;-93
2023/07/06 14:21:25;;;;;;;;;;;21.10;60.20;;;;;;5767238;24;19925;-92
2023/07/06 14:28:15;;;;;;;;;;;;;;;;;;;;;
2023/07/06 14:38:22;;;;;;;;;;;;;;;;;;;;;
2023/07/06 14:44:19;;;;;;;;;;;20.50;59.60;;;;;;5751220;24;20059;-92
2023/07/06 14:50:41;;;;;;;;;;;20.50;59.60;;;;;;5772661;24;19981;-93
2023/07/06 14:56:48;;;;;;;;;;;20.50;60.30;;;;;;5779510;24;19985;-92
2023/07/06 14:59:51;;;;;;;;;;;20.50;59.40;;;;;;5891578;24;19977;-92
2023/07/06 15:02:43;;;;;;;;;;;20.30;59.70;;;;;;5821650;24;19947;-92
2023/07/06 15:05:15;;;;;;;;;;;20.30;60.50;;;;;;5880486;24;20022;-90
2023/07/06 15:07:44;;;;;;;;;;;20.30;62.20;;;;;;5831631;24;20781;-93
2023/07/06 15:10:12;;;;;;;;;;;20.60;62.10;;;;;;5936094;23;19990;-92
2023/07/06 15:12:40;;;;;;;;;;;20.70;61.00;;;;;;5942754;23;19950;-91
2023/07/06 15:15:25;;;;;;;;;;;;;;;;;;;;;
2023/07/06 15:25:49;;;;;;;;;;;20.60;60.20;;;;;;5880452;23;19930;-92
2023/07/06 15:32:23;;;;;;;;;;;;;;;;;;;;;
2023/07/06 15:35:18;;;;;;;;;;;21.00;60.20;;;;;;5799388;24;19970;-91
2023/07/06 15:37:49;;;;;;;;;;;21.10;59.30;;;;;;5809748;24;19984;-91
2023/07/06 15:40:24;;;;;;;;;;;21.20;58.40;;;;;;5840593;24;19952;-94
2023/07/06 15:46:59;;;;;;;;;;;21.20;58.10;;;;;;5851528;24;19924;-95
2023/07/06 15:52:13;;;;;;;;;;;21.40;58.20;;;;;;5875653;24;19923;-91
2023/07/06 15:55:08;;;;;;;;;;;21.40;58.00;;;;;;5837018;24;20379;-93
2023/07/06 15:57:37;;;;;;;;;;;21.20;58.30;;;;;;5899102;24;19991;-91
2023/07/06 16:00:32;;;;;;;;;;;20.90;59.00;;;;;;5928388;23;20553;-93
2023/07/06 16:06:18;;;;;;;;;;;20.50;60.00;;;;;;6179346;23;19990;-90
2023/07/06 16:09:21;;;;;;;;;;;20.30;60.70;;;;;;6132945;23;19923;-93
2023/07/06 16:12:18;;;;;;;;;;;20.20;60.70;;;;;;6042021;23;20028;-91
2023/07/06 16:14:49;;;;;;;;;;;20.00;58.40;;;;;;6149765;23;19920;-93
2023/07/06 16:17:36;;;;;;;;;;;20.00;59.40;;;;;;6143207;23;20119;-91
2023/07/06 16:20:06;;;;;;;;;;;20.00;60.10;;;;;;6128980;23;19919;-89
2023/07/06 16:22:54;;;;;;;;;;;20.00;60.10;;;;;;6110471;23;19951;-93
2023/07/06 16:25:20;;;;;;;;;;;20.00;59.00;;;;;;6152001;23;20417;-92
2023/07/06 16:28:31;;;;;;;;;;;19.90;59.00;;;;;;6111158;23;19935;-92
2023/07/06 16:30:37;;;;;;;;;;;19.80;58.90;;;;;;6106004;23;19925;-90
2023/07/06 16:36:44;;;;;;;;;;;19.80;59.30;;;;;;6122531;23;20342;-93
2023/07/06 16:42:51;;;;;;;;;;;19.70;59.20;;;;;;6141555;23;20021;-94
2023/07/06 16:45:17;;;;;;;;;;;19.70;60.40;;;;;;6156873;23;19950;-92
2023/07/06 16:47:43;;;;;;;;;;;19.60;60.50;;;;;;6120579;23;20095;-94
2023/07/06 16:50:38;;;;;;;;;;;19.60;59.60;;;;;;6178463;23;19924;-93
2023/07/06 16:53:06;;;;;;;;;;;19.50;60.00;;;;;;6130241;23;20039;-91
2023/07/06 16:55:32;;;;;;;;;;;19.60;60.00;;;;;;6150440;23;19923;-94
2023/07/06 17:01:33;;;;;;;;;;;19.70;59.80;;;;;;6144614;23;19928;-91
2023/07/06 17:04:01;;;;;;;;;;;19.70;59.80;;;;;;6065257;23;20324;-92
2023/07/06 17:07:06;;;;;;;;;;;19.70;59.90;;;;;;6149988;23;20490;-93
2023/07/06 17:09:54;;;;;;;;;;;19.70;59.50;;;;;;6148955;23;20238;-91
2023/07/06 17:12:27;;;;;;;;;;;19.90;60.20;;;;;;6127956;23;20340;-91
2023/07/06 17:14:55;;;;;;;;;;;20.10;60.00;;;;;;6150246;23;19947;-90
2023/07/06 17:17:21;;;;;;;;;;;20.20;59.70;;;;;;6145559;23;19959;-90
2023/07/06 17:19:51;;;;;;;;;;;20.30;60.20;;;;;;6134511;23;19919;-92
2023/07/06 17:22:16;;;;;;;;;;;20.30;60.30;;;;;;6159539;23;19930;-91
2023/07/06 17:24:42;;;;;;;;;;;20.30;59.80;;;;;;6139012;23;20002;-91
2023/07/06 17:27:08;;;;;;;;;;;20.30;59.20;;;;;;6152643;23;19923;-91
2023/07/06 17:29:35;;;;;;;;;;;20.30;59.00;;;;;;6160631;23;19995;-91
2023/07/06 17:32:03;;;;;;;;;;;20.30;59.60;;;;;;6160511;23;19971;-91
2023/07/06 17:34:29;;;;;;;;;;;20.30;59.50;;;;;;6158313;23;20528;-91
2023/07/06 17:36:55;;;;;;;;;;;20.30;59.60;;;;;;6154087;23;19923;-91
2023/07/06 17:39:20;;;;;;;;;;;20.20;59.50;;;;;;6163086;23;19920;-92
2023/07/06 17:41:48;;;;;;;;;;;20.20;60.00;;;;;;6163339;23;19958;-92
2023/07/06 17:44:14;;;;;;;;;;;20.10;58.50;;;;;;6136738;23;19926;-91
2023/07/06 17:46:40;;;;;;;;;;;20.10;57.70;;;;;;6156809;23;19998;-90
2023/07/06 17:49:05;;;;;;;;;;;20.10;59.10;;;;;;6160219;23;19931;-90
2023/07/06 17:51:31;;;;;;;;;;;20.00;58.80;;;;;;6188083;23;19931;-90
2023/07/06 17:53:57;;;;;;;;;;;20.00;58.60;;;;;;6147509;23;19920;-91
2023/07/06 17:56:23;;;;;;;;;;;19.90;58.60;;;;;;6158975;23;19931;-91
2023/07/06 17:58:48;;;;;;;;;;;19.90;58.40;;;;;;6157380;23;19920;-90
2023/07/06 18:01:14;;;;;;;;;;;19.80;59.50;;;;;;6163523;23;19927;-90
2023/07/06 18:03:40;;;;;;;;;;;19.80;59.10;;;;;;6136770;23;19938;-92
2023/07/06 18:06:11;;;;;;;;;;;19.70;59.20;;;;;;6138707;23;19930;-92
2023/07/06 18:08:36;;;;;;;;;;;19.70;58.20;;;;;;6130328;23;19920;-91
2023/07/06 18:11:03;;;;;;;;;;;19.70;58.90;;;;;;6162283;23;19959;-90
2023/07/06 18:13:29;;;;;;;;;;;19.60;60.20;;;;;;6137520;23;19924;-91
2023/07/06 18:15:54;;;;;;;;;;;19.50;59.80;;;;;;6162715;23;19955;-90
2023/07/06 18:18:20;;;;;;;;;;;19.50;58.70;;;;;;6153505;23;20323;-91
2023/07/06 18:20:46;;;;;;;;;;;19.40;60.50;;;;;;6188033;23;19939;-91
2023/07/06 18:23:12;;;;;;;;;;;19.30;59.10;;;;;;6161506;23;20003;-91
2023/07/06 18:25:46;;;;;;;;;;;19.30;59.30;;;;;;6163077;23;19920;-91
2023/07/06 18:28:13;;;;;;;;;;;19.20;60.30;;;;;;6154087;23;19924;-91
2023/07/06 18:30:38;;;;;;;;;;;19.20;59.60;;;;;;6163262;23;19920;-91
2023/07/06 18:33:04;;;;;;;;;;;19.10;60.10;;;;;;6146352;23;19924;-91
2023/07/06 18:35:30;;;;;;;;;;;19.10;60.30;;;;;;6163275;23;19920;-91
2023/07/06 18:37:56;;;;;;;;;;;19.00;59.70;;;;;;6155743;23;19924;-91
2023/07/06 18:40:22;;;;;;;;;;;18.90;60.20;;;;;;6162439;23;19920;-92
2023/07/06 18:42:47;;;;;;;;;;;18.90;60.30;;;;;;6161065;23;19927;-92
2023/07/06 18:45:13;;;;;;;;;;;18.80;60.50;;;;;;6138576;23;19920;-91
2023/07/06 18:47:39;;;;;;;;;;;18.80;59.80;;;;;;6154480;23;19924;-91
2023/07/06 18:50:08;;;;;;;;;;;18.70;60.10;;;;;;6187601;23;19924;-91
2023/07/06 18:52:34;;;;;;;;;;;18.60;60.60;;;;;;6160727;23;19924;-90
2023/07/06 18:55:00;;;;;;;;;;;18.50;60.80;;;;;;6138093;23;19975;-91
2023/07/06 18:57:26;;;;;;;;;;;18.40;61.10;;;;;;6152465;23;19928;-91
2023/07/06 18:59:53;;;;;;;;;;;18.30;60.70;;;;;;6163067;23;20270;-91
2023/07/06 19:02:26;;;;;;;;;;;18.20;61.10;;;;;;6146341;23;19920;-91
2023/07/06 19:04:51;;;;;;;;;;;18.20;60.80;;;;;;6162788;23;19927;-91
2023/07/06 19:07:17;;;;;;;;;;;18.10;61.10;;;;;;6178466;23;20231;-91
2023/07/06 19:09:47;;;;;;;;;;;18.00;61.60;;;;;;6186784;23;19920;-90
2023/07/06 19:12:14;;;;;;;;;;;18.00;61.60;;;;;;6160932;23;19920;-91
2023/07/06 19:14:41;;;;;;;;;;;17.80;61.80;;;;;;6162580;23;19927;-90
2023/07/06 19:17:07;;;;;;;;;;;17.80;61.70;;;;;;6177971;23;19920;-90
2023/07/06 19:19:35;;;;;;;;;;;17.70;62.10;;;;;;6162274;23;19959;-90
2023/07/06 19:22:01;;;;;;;;;;;17.60;62.60;;;;;;6186698;23;20032;-91
2023/07/06 19:24:26;;;;;;;;;;;17.50;62.50;;;;;;6161183;23;19944;-90
2023/07/06 19:26:52;;;;;;;;;;;17.50;62.60;;;;;;6155162;23;19916;-91
2023/07/06 19:29:19;;;;;;;;;;;17.50;62.60;;;;;;6149018;23;19919;-90
2023/07/06 19:31:44;;;;;;;;;;;17.40;62.40;;;;;;6162340;23;20229;-91
2023/07/06 19:34:10;;;;;;;;;;;17.40;63.80;;;;;;6160934;23;20006;-90
2023/07/06 19:36:35;;;;;;;;;;;17.20;63.40;;;;;;6155647;23;19995;-91
2023/07/06 19:39:01;;;;;;;;;;;17.20;63.40;;;;;;6160277;23;19920;-90
2023/07/06 19:41:28;;;;;;;;;;;17.10;63.70;;;;;;6137718;23;20038;-91
2023/07/06 19:43:54;;;;;;;;;;;17.00;64.40;;;;;;6161338;23;19920;-91
2023/07/06 19:46:20;;;;;;;;;;;17.00;63.80;;;;;;6158630;23;19974;-91
2023/07/06 19:48:45;;;;;;;;;;;16.90;64.40;;;;;;6156148;23;19930;-91
2023/07/06 19:51:11;;;;;;;;;;;16.90;64.60;;;;;;6186963;23;20242;-90
2023/07/06 19:53:37;;;;;;;;;;;16.80;63.70;;;;;;6161353;23;19970;-90
2023/07/06 19:56:03;;;;;;;;;;;16.70;65.20;;;;;;6186616;23;19923;-90
2023/07/06 19:58:28;;;;;;;;;;;16.60;66.20;;;;;;6152268;23;19956;-90
2023/07/06 20:00:55;;;;;;;;;;;16.50;66.30;;;;;;6162348;23;19935;-91
2023/07/06 20:03:20;;;;;;;;;;;16.40;65.30;;;;;;6161047;23;20013;-90
2023/07/06 20:05:46;;;;;;;;;;;16.40;64.70;;;;;;6161681;23;19924;-90
2023/07/06 20:08:13;;;;;;;;;;;16.40;65.50;;;;;;6153197;23;19920;-91
2023/07/06 20:10:39;;;;;;;;;;;16.30;65.60;;;;;;6187811;23;20220;-90
2023/07/06 20:13:05;;;;;;;;;;;16.20;66.40;;;;;;6175164;23;20261;-90
2023/07/06 20:15:31;;;;;;;;;;;16.10;67.20;;;;;;6163479;23;19924;-90
2023/07/06 20:17:57;;;;;;;;;;;16.10;67.50;;;;;;6154445;23;19924;-90
2023/07/06 20:20:23;;;;;;;;;;;16.00;67.40;;;;;;6164009;23;20289;-90
2023/07/06 20:22:49;;;;;;;;;;;15.80;67.50;;;;;;6187281;23;19943;-90
2023/07/06 20:25:15;;;;;;;;;;;15.80;67.40;;;;;;6163769;23;20335;-90
2023/07/06 20:27:41;;;;;;;;;;;15.60;67.20;;;;;;6154731;23;19935;-90
2023/07/06 20:30:08;;;;;;;;;;;15.60;67.00;;;;;;6164008;23;19924;-90
2023/07/06 20:32:35;;;;;;;;;;;15.50;66.80;;;;;;6187654;23;19939;-90
2023/07/06 20:35:01;;;;;;;;;;;15.40;67.20;;;;;;6163524;23;20003;-91
2023/07/06 20:37:27;;;;;;;;;;;15.30;67.00;;;;;;6155896;23;19955;-90
2023/07/06 20:39:53;;;;;;;;;;;15.20;67.60;;;;;;6163719;23;19942;-91
2023/07/06 20:42:18;;;;;;;;;;;15.10;68.00;;;;;;6162076;23;19920;-90
2023/07/06 20:44:48;;;;;;;;;;;15.00;68.30;;;;;;6162871;23;19927;-90
2023/07/06 20:47:14;;;;;;;;;;;15.00;68.30;;;;;;6137234;23;20246;-91
2023/07/06 20:49:44;;;;;;;;;;;15.00;69.00;;;;;;6159504;23;19923;-89
2023/07/06 20:52:10;;;;;;;;;;;14.90;69.60;;;;;;6157677;23;19923;-89
2023/07/06 20:54:35;;;;;;;;;;;14.80;69.60;;;;;;6157564;23;20696;-89
2023/07/06 20:57:01;;;;;;;;;;;14.70;69.80;;;;;;6151657;23;20378;-90
2023/07/06 20:59:27;;;;;;;;;;;14.70;69.70;;;;;;6157438;23;19920;-91
2023/07/06 21:01:53;;;;;;;;;;;14.60;69.70;;;;;;6159562;23;19931;-90
2023/07/06 21:04:21;;;;;;;;;;;14.50;70.20;;;;;;6157907;23;19967;-91
2023/07/06 21:06:49;;;;;;;;;;;14.40;70.50;;;;;;6151767;23;19923;-91
2023/07/06 21:09:15;;;;;;;;;;;14.40;70.90;;;;;;6140358;23;19995;-91
2023/07/06 21:11:41;;;;;;;;;;;14.30;71.50;;;;;;6158654;23;19963;-91
2023/07/06 21:14:07;;;;;;;;;;;14.30;71.20;;;;;;6182253;23;19924;-90
2023/07/06 21:16:44;;;;;;;;;;;14.20;71.50;;;;;;6153611;23;20003;-91
2023/07/06 21:19:14;;;;;;;;;;;14.20;71.10;;;;;;6134665;23;20526;-93
2023/07/06 21:21:40;;;;;;;;;;;14.10;71.20;;;;;;6160763;23;19995;-93
2023/07/06 21:24:06;;;;;;;;;;;14.00;71.30;;;;;;6184083;23;19924;-92
2023/07/06 21:26:33;;;;;;;;;;;13.90;70.80;;;;;;6181460;23;19916;-92
2023/07/06 21:29:03;;;;;;;;;;;13.80;70.60;;;;;;6158189;23;19920;-92
2023/07/06 21:31:29;;;;;;;;;;;13.70;71.00;;;;;;6161479;23;19927;-91
2023/07/06 21:33:55;;;;;;;;;;;13.70;70.70;;;;;;6156881;23;19924;-92
2023/07/06 21:36:28;;;;;;;;;;;13.60;71.10;;;;;;6182080;23;19920;-93
2023/07/06 21:38:54;;;;;;;;;;;13.60;71.20;;;;;;6157954;23;20331;-91
2023/07/06 21:41:20;;;;;;;;;;;13.60;71.00;;;;;;6160704;23;19928;-92
2023/07/06 21:43:46;;;;;;;;;;;13.50;71.60;;;;;;6161437;23;19931;-92
2023/07/06 21:46:15;;;;;;;;;;;13.50;71.60;;;;;;6161394;23;19920;-92
2023/07/06 21:48:43;;;;;;;;;;;13.50;71.30;;;;;;6156311;23;19920;-93
2023/07/06 21:51:10;;;;;;;;;;;13.60;71.80;;;;;;6163015;23;19974;-92
2023/07/06 21:53:36;;;;;;;;;;;13.60;72.90;;;;;;6161414;23;19924;-92
2023/07/06 21:56:03;;;;;;;;;;;13.50;73.30;;;;;;6163318;23;19958;-92
2023/07/06 21:58:31;;;;;;;;;;;13.50;73.20;;;;;;6153126;23;19971;-91
2023/07/06 22:00:57;;;;;;;;;;;13.40;72.90;;;;;;6162518;23;19966;-92
2023/07/06 22:03:23;;;;;;;;;;;13.40;73.50;;;;;;6159728;23;19928;-91
2023/07/06 22:06:01;;;;;;;;;;;13.40;72.70;;;;;;6162963;23;19919;-91
2023/07/06 22:08:26;;;;;;;;;;;13.30;73.10;;;;;;6141321;23;19931;-91
2023/07/06 22:10:52;;;;;;;;;;;13.30;73.20;;;;;;6162187;23;19920;-93
2023/07/06 22:13:18;;;;;;;;;;;13.30;73.50;;;;;;6161061;23;19935;-92
2023/07/06 22:15:44;;;;;;;;;;;13.30;72.80;;;;;;6163420;23;19920;-91
2023/07/06 22:18:09;;;;;;;;;;;13.30;73.00;;;;;;6153301;23;20259;-92
2023/07/06 22:20:35;;;;;;;;;;;13.30;74.20;;;;;;6163143;23;20246;-92
2023/07/06 22:23:03;;;;;;;;;;;13.30;73.10;;;;;;6160370;23;19950;-91
2023/07/06 22:25:29;;;;;;;;;;;13.30;73.40;;;;;;6162459;23;19945;-92
2023/07/06 22:27:55;;;;;;;;;;;13.30;73.30;;;;;;6153792;23;19927;-92
2023/07/06 22:30:20;;;;;;;;;;;13.30;72.90;;;;;;6161843;23;19924;-91
2023/07/06 22:32:46;;;;;;;;;;;13.30;73.40;;;;;;6136972;23;19951;-92
2023/07/06 22:35:12;;;;;;;;;;;13.30;74.00;;;;;;6161588;23;19920;-93
2023/07/06 22:37:38;;;;;;;;;;;13.30;73.70;;;;;;6156609;23;19965;-92
2023/07/06 22:40:04;;;;;;;;;;;13.30;74.50;;;;;;6162833;23;20011;-93
2023/07/06 22:42:32;;;;;;;;;;;13.30;74.60;;;;;;6161822;23;19927;-92
2023/07/06 22:44:58;;;;;;;;;;;13.20;74.20;;;;;;6163239;23;19942;-92
2023/07/06 22:47:23;;;;;;;;;;;13.10;73.70;;;;;;6153892;23;20386;-91
2023/07/06 22:49:49;;;;;;;;;;;13.10;74.10;;;;;;6163028;23;19923;-92
2023/07/06 22:52:15;;;;;;;;;;;13.10;73.50;;;;;;6160665;23;19927;-92
2023/07/06 22:54:41;;;;;;;;;;;13.00;73.80;;;;;;6163323;23;19994;-92
2023/07/06 22:57:06;;;;;;;;;;;13.00;73.50;;;;;;6115646;23;19923;-92
2023/07/06 22:59:32;;;;;;;;;;;13.00;73.30;;;;;;6162155;23;19991;-91
2023/07/06 23:01:57;;;;;;;;;;;13.00;73.20;;;;;;6162813;23;19924;-92
2023/07/06 23:04:23;;;;;;;;;;;12.90;73.20;;;;;;6160712;23;19926;-90
2023/07/06 23:06:49;;;;;;;;;;;12.90;73.20;;;;;;6158136;23;19999;-93
2023/07/06 23:09:15;;;;;;;;;;;12.80;73.50;;;;;;6162261;23;19974;-92
2023/07/06 23:11:40;;;;;;;;;;;12.80;73.20;;;;;;6139280;23;19998;-92
2023/07/06 23:14:09;;;;;;;;;;;12.70;73.30;;;;;;6162873;23;20361;-92
2023/07/06 23:16:35;;;;;;;;;;;12.70;73.30;;;;;;6157687;23;20431;-92
2023/07/06 23:19:01;;;;;;;;;;;12.70;73.90;;;;;;6159863;23;20034;-92
2023/07/06 23:21:27;;;;;;;;;;;12.60;74.80;;;;;;6162942;23;20338;-92
2023/07/06 23:23:52;;;;;;;;;;;12.60;74.30;;;;;;6160822;23;19920;-91
2023/07/06 23:26:23;;;;;;;;;;;12.50;74.10;;;;;;6159888;23;19924;-93
2023/07/06 23:28:50;;;;;;;;;;;12.50;74.50;;;;;;6182271;23;19924;-92
2023/07/06 23:31:16;;;;;;;;;;;12.50;75.00;;;;;;6162887;23;19966;-92
2023/07/06 23:33:42;;;;;;;;;;;12.50;74.40;;;;;;6185802;23;19982;-91
2023/07/06 23:36:15;;;;;;;;;;;12.40;74.20;;;;;;6137524;23;20002;-94
2023/07/06 23:38:44;;;;;;;;;;;12.30;74.40;;;;;;6157665;23;20311;-91
2023/07/06 23:41:10;;;;;;;;;;;12.30;74.10;;;;;;6162336;23;19920;-91
2023/07/06 23:43:36;;;;;;;;;;;12.20;74.40;;;;;;6160484;23;20398;-92
2023/07/06 23:46:03;;;;;;;;;;;12.20;74.10;;;;;;6162677;23;19974;-92
2023/07/06 23:48:28;;;;;;;;;;;12.10;74.10;;;;;;6153793;23;19970;-92
2023/07/06 23:50:54;;;;;;;;;;;12.10;74.20;;;;;;6162878;23;19924;-92
2023/07/06 23:53:20;;;;;;;;;;;12.10;74.20;;;;;;6135571;23;19936;-92
2023/07/06 23:55:45;;;;;;;;;;;12.10;74.20;;;;;;6187448;23;19924;-92
2023/07/06 23:58:11;;;;;;;;;;;12.00;74.20;;;;;;6153794;23;19942;-92
